Gerli, Argentina
Current Conditions -  °F | °C
As of 1:00 AM on Wednesday 28 Jan 2015 (Local Time) from SABE Reporting Station
Clear Clear  
Wind Chill: 82°   Ceiling: Unl
Heat Index: 88°   Visibility: 6mi
Dew Point: 73°   Wind: 10mph
Humidity: 74%   Direction: 340°NNW
Pressure: 29.71"   Gusts: NA
Location:  34.7°S, 58.38°W
Report Text: SABE 280400Z 34009KT CAVOK 28/23 Q1006
Loading
Personal Weather Stations






























Interactive Weather Map New forecast layout! Learn more

10-Day Weather Forecast

Advertisements
Track Severe Weather on mobile